Current | Forecast
Updated: 3:00 PM EEST on June 27, 2017
Observed at L'viv, Poland
Temperature 24°C
Humidity 53%
Dew Point 14°C
Wind East at 7 km/h
Pressure 1014 hPa (Falling)
Conditions Scattered Clouds
Visibility 10.0 kilometers
UV 7 out of 16
Clouds Scattered Clouds (SCT) : 1219 m
Yesterday's Maximum 23°C
Yesterday's Minimum 17°C approx.
Yesterday's Cooling Degree Days 3 approx.
Sunrise4:19 AM CEST
Sunset8:41 PM CEST
Moon Rise8:19 AM CEST
Moon Set11:03 PM CEST
Moon PhaseMoon Phase
Waxing Crescent
Raw METARMETAR UKLL 271200Z 08002MPS 9999 SCT040 24/14 Q1014 R13/CLRD// NOSIG


Monday
. High: 62° F.
Tuesday
. High: 64° F.
Wednesday
. High: 75° F.
Thursday
. High: 78° F.
Friday
. High: 68° F.
Saturday
. High: 64° F.
Sunday
. High: 68° F.
Monday
. High: 64° F.

Units: English | Metric

Find the Weather for any City, State or Zipcode, or Country:

U.S. State List | Severe Weather | Tropical Storms | Ski Conditions
United States | Canada | Central America | South America | Asia | Europe | Australia | Africa | Islands

Weather Underground

© Copyright 2017
The Weather Company, LLC